Time;durP1;ratioP1;P1;durP2;ratioP2;P2;SDS_P1;SDS_P2;PMS_P1;PMS_P2;Temp;Humidity;BMP_temperature;BMP_pressure;BME280_temperature;BME280_humidity;BME280_pressure;Samples;Min_cycle;Max_cycle;Signal;HPM_P1;HPM_P2
2024/01/19 00:01:30;;;;;;;4.17;4.07;;;16.20;64.50;;;;;;5047828;28;43492;-71
2024/01/19 00:03:59;;;;;;;3.90;3.80;;;16.20;64.60;;;;;;5047723;28;43390;-71
2024/01/19 00:06:29;;;;;;;4.50;4.30;;;16.10;64.60;;;;;;5048136;28;44084;-71
2024/01/19 00:08:58;;;;;;;4.27;4.17;;;16.10;64.80;;;;;;5055748;28;43564;-71
2024/01/19 00:11:26;;;;;;;4.10;4.00;;;16.10;64.70;;;;;;5073242;28;43332;-70
2024/01/19 00:13:54;;;;;;;4.63;4.43;;;16.10;64.80;;;;;;5073097;28;43428;-70
2024/01/19 00:16:22;;;;;;;4.70;4.50;;;16.10;64.90;;;;;;5073780;28;43482;-70
2024/01/19 00:18:51;;;;;;;4.40;4.20;;;16.00;64.80;;;;;;5072921;28;43623;-70
2024/01/19 00:21:18;;;;;;;3.97;3.87;;;16.10;65.00;;;;;;5072833;28;43417;-70
2024/01/19 00:23:49;;;;;;;4.37;4.20;;;16.00;64.90;;;;;;5072583;28;43412;-70
2024/01/19 00:26:17;;;;;;;4.57;4.37;;;16.00;65.00;;;;;;5073703;28;43388;-70
2024/01/19 00:28:45;;;;;;;3.80;3.70;;;16.00;64.90;;;;;;5072652;28;43891;-70
2024/01/19 00:31:13;;;;;;;4.67;4.47;;;16.00;65.00;;;;;;5072955;28;43335;-70
2024/01/19 00:33:41;;;;;;;4.50;4.30;;;16.00;65.00;;;;;;5073258;28;43443;-70
2024/01/19 00:36:09;;;;;;;4.07;3.97;;;16.00;65.00;;;;;;5073375;28;43434;-70
2024/01/19 00:38:37;;;;;;;4.17;4.07;;;16.00;65.00;;;;;;5072356;28;43847;-70
2024/01/19 00:41:07;;;;;;;4.20;4.10;;;16.00;65.00;;;;;;5072571;28;43443;-70
2024/01/19 00:43:35;;;;;;;4.23;4.10;;;16.00;65.20;;;;;;5073068;28;43433;-70
2024/01/19 00:46:03;;;;;;;4.50;4.40;;;16.00;65.10;;;;;;5073340;28;43393;-70
2024/01/19 00:48:31;;;;;;;4.37;4.17;;;16.10;64.80;;;;;;5071803;28;45930;-70
2024/01/19 00:50:59;;;;;;;4.00;3.90;;;16.20;64.40;;;;;;5072901;28;43530;-70
2024/01/19 00:53:27;;;;;;;4.23;4.03;;;16.20;64.40;;;;;;5076357;28;43572;-70
2024/01/19 00:55:55;;;;;;;4.20;4.10;;;16.20;64.40;;;;;;5087657;27;43667;-70
2024/01/19 00:58:25;;;;;;;3.97;3.87;;;16.10;65.20;;;;;;5076472;28;43700;-70
2024/01/19 01:00:53;;;;;;;4.13;4.03;;;16.10;64.70;;;;;;5075932;28;43645;-70
2024/01/19 01:03:23;;;;;;;4.10;4.00;;;16.10;64.50;;;;;;5076122;28;43390;-70
2024/01/19 01:05:56;;;;;;;4.03;3.93;;;16.10;64.70;;;;;;5075920;28;43426;-70
2024/01/19 01:08:25;;;;;;;3.97;3.87;;;16.10;64.70;;;;;;5076083;28;44025;-70
2024/01/19 01:10:53;;;;;;;4.13;4.03;;;16.10;64.80;;;;;;5077387;28;43881;-70
2024/01/19 01:13:21;;;;;;;4.37;4.20;;;16.00;65.50;;;;;;5075757;28;43769;-70
2024/01/19 01:15:50;;;;;;;4.13;4.03;;;16.00;64.80;;;;;;5076057;28;43399;-70
2024/01/19 01:18:19;;;;;;;3.73;3.63;;;16.00;64.80;;;;;;5076054;28;43904;-70
2024/01/19 01:20:49;;;;;;;3.90;3.80;;;16.00;64.80;;;;;;5050567;28;43454;-71
2024/01/19 01:23:17;;;;;;;3.70;3.60;;;16.00;64.80;;;;;;5050587;28;43376;-71
2024/01/19 01:25:45;;;;;;;4.07;3.97;;;16.00;64.90;;;;;;5051068;28;44050;-71
2024/01/19 01:28:13;;;;;;;3.67;3.57;;;16.00;65.00;;;;;;5049217;28;43596;-71
2024/01/19 01:30:42;;;;;;;4.20;4.10;;;16.00;65.00;;;;;;5048896;28;43394;-71
2024/01/19 01:33:11;;;;;;;4.10;4.00;;;16.00;65.10;;;;;;5050442;28;43368;-71
2024/01/19 01:35:39;;;;;;;4.17;4.07;;;16.00;64.90;;;;;;5055649;28;43505;-71
2024/01/19 01:38:07;;;;;;;4.40;4.20;;;16.00;65.00;;;;;;5050579;28;43837;-71
2024/01/19 01:40:35;;;;;;;4.13;4.03;;;16.00;65.00;;;;;;5050351;28;43423;-71
2024/01/19 01:43:05;;;;;;;3.73;3.63;;;16.00;65.00;;;;;;5050106;28;43486;-71
2024/01/19 01:45:33;;;;;;;4.30;4.10;;;16.00;65.00;;;;;;5050568;28;43969;-71
2024/01/19 01:48:01;;;;;;;3.57;3.47;;;16.00;65.10;;;;;;5050033;28;43602;-71
2024/01/19 01:50:30;;;;;;;4.10;4.00;;;16.00;65.10;;;;;;5049334;28;43506;-71
2024/01/19 01:52:58;;;;;;;3.77;3.67;;;15.90;65.10;;;;;;5048545;28;43972;-71
2024/01/19 01:55:27;;;;;;;3.97;3.87;;;16.00;65.80;;;;;;5050381;28;43343;-71
2024/01/19 01:57:55;;;;;;;3.90;3.80;;;16.10;64.80;;;;;;5049519;28;43610;-71
2024/01/19 02:00:23;;;;;;;4.00;3.90;;;16.20;64.40;;;;;;5045918;28;43491;-71
2024/01/19 02:02:51;;;;;;;4.33;4.13;;;16.20;64.20;;;;;;5051225;28;43939;-71
2024/01/19 02:05:19;;;;;;;3.77;3.67;;;16.20;64.40;;;;;;5043741;28;43440;-71
2024/01/19 02:07:49;;;;;;;4.13;4.03;;;16.20;64.40;;;;;;5049872;28;43764;-71
2024/01/19 02:10:17;;;;;;;3.70;3.60;;;16.10;64.50;;;;;;5050492;28;43444;-71
2024/01/19 02:12:45;;;;;;;3.90;3.80;;;16.10;64.40;;;;;;5048931;28;43531;-71
2024/01/19 02:15:18;;;;;;;3.70;3.60;;;16.10;64.50;;;;;;5048779;28;43415;-71
2024/01/19 02:17:46;;;;;;;4.00;3.90;;;16.10;64.50;;;;;;5043931;28;43708;-71
2024/01/19 02:20:16;;;;;;;4.20;4.00;;;16.00;64.60;;;;;;5048419;28;43543;-71
2024/01/19 02:22:44;;;;;;;4.00;3.90;;;16.00;64.70;;;;;;5049436;28;43503;-71
2024/01/19 02:25:14;;;;;;;3.80;3.70;;;16.00;64.80;;;;;;5049811;28;43550;-71
2024/01/19 02:27:42;;;;;;;4.03;3.93;;;16.00;64.80;;;;;;5041896;28;44932;-71
2024/01/19 02:30:11;;;;;;;4.53;4.40;;;16.00;64.90;;;;;;5049028;28;43463;-72
2024/01/19 02:32:39;;;;;;;4.17;4.07;;;16.00;64.90;;;;;;5056447;28;43469;-72
2024/01/19 02:35:07;;;;;;;4.20;4.10;;;16.00;65.00;;;;;;5049081;28;43576;-72
2024/01/19 02:37:36;;;;;;;3.77;3.67;;;15.90;64.90;;;;;;5048644;28;43717;-72
2024/01/19 02:40:05;;;;;;;4.53;4.33;;;15.90;64.90;;;;;;5048882;28;44040;-72
2024/01/19 02:42:34;;;;;;;4.27;4.17;;;15.90;64.90;;;;;;5048764;28;43898;-72
2024/01/19 02:45:02;;;;;;;4.00;3.90;;;15.90;65.00;;;;;;5048961;28;43429;-72
2024/01/19 02:47:30;;;;;;;4.13;4.00;;;15.90;65.00;;;;;;5047494;28;45974;-72
2024/01/19 02:50:02;;;;;;;4.13;4.03;;;16.00;65.00;;;;;;5048438;28;43471;-72
2024/01/19 02:52:30;;;;;;;4.37;4.27;;;16.10;64.70;;;;;;5050408;28;43934;-72
2024/01/19 02:54:58;;;;;;;4.10;3.90;;;16.20;64.40;;;;;;5044353;28;43922;-73
2024/01/19 02:57:26;;;;;;;4.07;3.97;;;16.40;64.20;;;;;;5048196;28;43612;-72
2024/01/19 02:59:55;;;;;;;4.13;4.03;;;16.50;63.80;;;;;;5046310;28;44811;-73
2024/01/19 03:02:24;;;;;;;4.13;4.03;;;16.70;63.40;;;;;;5047898;28;43744;-72
2024/01/19 03:04:52;;;;;;;4.00;3.90;;;16.80;63.00;;;;;;5048317;28;43416;-72
2024/01/19 03:07:20;;;;;;;4.00;3.90;;;16.90;62.70;;;;;;5048360;28;43928;-73
2024/01/19 03:09:48;;;;;;;4.20;4.03;;;17.00;62.40;;;;;;5049601;28;43391;-72
2024/01/19 03:12:16;;;;;;;4.40;4.30;;;17.10;62.20;;;;;;5048330;28;43464;-72
2024/01/19 03:14:44;;;;;;;3.90;3.80;;;17.20;62.00;;;;;;5045243;28;43535;-72
2024/01/19 03:17:13;;;;;;;3.97;3.87;;;17.20;62.10;;;;;;5048017;28;43596;-72
2024/01/19 03:19:42;;;;;;;4.13;4.03;;;17.00;62.00;;;;;;5047838;28;43483;-72
2024/01/19 03:22:10;;;;;;;4.00;3.90;;;16.90;63.10;;;;;;5047642;28;43475;-72
2024/01/19 03:24:38;;;;;;;4.20;4.10;;;16.70;62.50;;;;;;5041660;28;43439;-72
2024/01/19 03:27:06;;;;;;;3.97;3.87;;;16.60;62.90;;;;;;5047898;28;43627;-72
2024/01/19 03:29:34;;;;;;;4.33;4.23;;;16.50;63.70;;;;;;5047655;28;43411;-72
2024/01/19 03:32:02;;;;;;;4.27;4.10;;;16.40;63.60;;;;;;5046784;28;43555;-72
2024/01/19 03:34:31;;;;;;;4.00;3.90;;;16.40;63.80;;;;;;5048307;28;43439;-72
2024/01/19 03:37:03;;;;;;;4.43;4.23;;;16.30;63.90;;;;;;5047872;28;43841;-72
2024/01/19 03:39:32;;;;;;;4.17;4.07;;;16.20;64.00;;;;;;5058484;28;43453;-70
2024/01/19 03:42:00;;;;;;;3.90;3.80;;;16.20;64.20;;;;;;5073702;28;43566;-70
2024/01/19 03:44:28;;;;;;;4.30;4.10;;;16.10;64.60;;;;;;5074270;28;43499;-70
2024/01/19 03:46:56;;;;;;;4.50;4.30;;;16.10;64.50;;;;;;5073378;28;43912;-70
2024/01/19 03:49:25;;;;;;;4.47;4.37;;;16.10;64.50;;;;;;5073904;28;43862;-70
2024/01/19 03:52:04;;;;;;;4.60;4.40;;;16.10;64.50;;;;;;5072798;28;43461;-70
2024/01/19 03:54:33;;;;;;;4.20;4.10;;;16.00;64.50;;;;;;5088532;28;43466;-70
2024/01/19 03:57:02;;;;;;;4.47;4.27;;;16.00;64.50;;;;;;5073202;28;44056;-70
2024/01/19 03:59:30;;;;;;;4.50;4.40;;;16.00;64.70;;;;;;5073421;28;43462;-69
2024/01/19 04:01:58;;;;;;;4.30;4.20;;;16.00;65.00;;;;;;5072643;28;43419;-70
2024/01/19 04:04:26;;;;;;;4.73;4.53;;;16.10;65.00;;;;;;5073495;28;43467;-70
2024/01/19 04:06:55;;;;;;;4.80;4.63;;;16.20;64.70;;;;;;5072599;28;45713;-70
2024/01/19 04:09:25;;;;;;;4.90;4.70;;;16.30;64.40;;;;;;5073401;28;43411;-70
2024/01/19 04:11:53;;;;;;;4.63;4.43;;;16.30;64.00;;;;;;5073190;28;43470;-70
2024/01/19 04:14:22;;;;;;;4.47;4.33;;;16.30;63.90;;;;;;5073739;28;43380;-70
2024/01/19 04:16:50;;;;;;;4.73;4.53;;;16.20;64.10;;;;;;5073322;28;43915;-70
2024/01/19 04:19:18;;;;;;;4.37;4.27;;;16.20;64.30;;;;;;5073144;28;43395;-70
2024/01/19 04:21:46;;;;;;;4.50;4.40;;;16.20;64.10;;;;;;5073040;28;43497;-69
2024/01/19 04:24:14;;;;;;;4.40;4.30;;;16.20;64.10;;;;;;5069944;28;43465;-70
2024/01/19 04:26:43;;;;;;;4.47;4.37;;;16.20;64.10;;;;;;5072992;28;43822;-70
2024/01/19 04:29:11;;;;;;;4.20;4.10;;;16.20;64.20;;;;;;5073184;28;43396;-70
2024/01/19 04:31:39;;;;;;;4.83;4.63;;;16.10;64.10;;;;;;5072965;28;43383;-71
2024/01/19 04:34:07;;;;;;;4.73;4.63;;;16.10;64.30;;;;;;5073478;28;43960;-70
2024/01/19 04:36:35;;;;;;;4.60;4.50;;;16.10;64.30;;;;;;5072663;28;44132;-70
2024/01/19 04:39:03;;;;;;;4.87;4.70;;;16.10;64.30;;;;;;5073071;28;43401;-70
2024/01/19 04:41:32;;;;;;;4.97;4.77;;;16.10;64.30;;;;;;5073387;28;43319;-70
2024/01/19 04:44:02;;;;;;;4.90;4.63;;;16.10;64.30;;;;;;5073156;28;43373;-70
2024/01/19 04:46:30;;;;;;;4.53;4.43;;;16.10;64.30;;;;;;5072142;28;45482;-70
2024/01/19 04:48:58;;;;;;;5.43;5.03;;;16.10;64.30;;;;;;5075284;28;44896;-72
2024/01/19 04:51:27;;;;;;;5.33;4.87;;;16.00;64.50;;;;;;5043683;28;43446;-72
2024/01/19 04:53:58;;;;;;;5.40;5.00;;;16.10;64.40;;;;;;5047436;28;43676;-72
2024/01/19 04:56:26;;;;;;;5.50;5.20;;;16.00;64.40;;;;;;5046583;28;44125;-73
2024/01/19 04:58:54;;;;;;;6.23;5.73;;;16.00;64.40;;;;;;5046001;28;43451;-73
2024/01/19 05:01:24;;;;;;;5.63;5.17;;;16.00;64.40;;;;;;5059134;28;43414;-73
2024/01/19 05:03:52;;;;;;;7.00;6.13;;;16.00;64.50;;;;;;5047024;28;43752;-78
2024/01/19 05:06:20;;;;;;;8.17;6.47;;;16.00;64.60;;;;;;5055082;28;45362;-73
2024/01/19 05:08:48;;;;;;;10.33;7.00;;;16.00;64.70;;;;;;5048011;28;43518;-72
2024/01/19 05:11:16;;;;;;;12.30;7.73;;;16.00;64.80;;;;;;5046573;28;43468;-73
2024/01/19 05:13:44;;;;;;;9.33;7.30;;;16.10;64.60;;;;;;5046477;28;43367;-73
2024/01/19 05:16:12;;;;;;;12.80;7.40;;;16.20;64.30;;;;;;5046303;28;44474;-73
2024/01/19 05:18:41;;;;;;;10.57;7.00;;;16.30;63.80;;;;;;5046360;28;43370;-73
2024/01/19 05:21:09;;;;;;;8.70;7.17;;;16.20;63.80;;;;;;5046202;28;43639;-72
2024/01/19 05:23:37;;;;;;;9.00;7.70;;;16.20;63.90;;;;;;5046491;28;43942;-72
2024/01/19 05:26:05;;;;;;;12.80;7.60;;;16.20;64.20;;;;;;5054792;28;46112;-73
2024/01/19 05:28:34;;;;;;;12.70;7.57;;;16.20;64.10;;;;;;5046293;28;43454;-72
2024/01/19 05:31:03;;;;;;;11.43;7.17;;;16.20;64.10;;;;;;5059121;28;43920;-72
2024/01/19 05:33:31;;;;;;;11.90;7.53;;;16.20;64.10;;;;;;5046854;28;43428;-72
2024/01/19 05:36:06;;;;;;;12.17;7.03;;;16.20;64.20;;;;;;5042049;28;43614;-73
2024/01/19 05:38:35;;;;;;;8.57;7.20;;;16.10;64.20;;;;;;5048617;28;43571;-72
2024/01/19 05:41:03;;;;;;;14.90;7.77;;;16.10;64.10;;;;;;5061002;28;44013;-73
2024/01/19 05:43:31;;;;;;;16.23;7.50;;;16.10;64.30;;;;;;5049319;28;43902;-72
2024/01/19 05:45:59;;;;;;;12.27;7.37;;;16.10;64.30;;;;;;5048974;28;44144;-72
2024/01/19 05:48:27;;;;;;;8.90;7.00;;;16.10;64.40;;;;;;5049477;28;43909;-72
2024/01/19 05:50:56;;;;;;;9.17;7.83;;;16.00;64.30;;;;;;5049673;28;43467;-72
2024/01/19 05:53:25;;;;;;;10.40;7.87;;;16.10;64.50;;;;;;5049878;28;43424;-72
2024/01/19 05:55:53;;;;;;;9.03;7.20;;;16.00;64.50;;;;;;5049426;28;43624;-73
2024/01/19 05:58:21;;;;;;;13.97;7.60;;;16.00;64.50;;;;;;5048892;28;43967;-73
2024/01/19 06:00:50;;;;;;;9.93;7.57;;;16.00;64.70;;;;;;5063986;28;43452;-71
2024/01/19 06:03:18;;;;;;;10.37;7.40;;;16.00;64.60;;;;;;5064383;28;43452;-71
2024/01/19 06:05:46;;;;;;;10.30;7.90;;;16.00;64.60;;;;;;5062180;28;45340;-71
2024/01/19 06:08:14;;;;;;;8.53;7.30;;;16.00;64.60;;;;;;5063488;28;43578;-71
2024/01/19 06:10:44;;;;;;;9.07;7.33;;;16.00;64.70;;;;;;5065739;28;44528;-71
2024/01/19 06:13:13;;;;;;;9.80;7.23;;;16.00;64.70;;;;;;5063722;28;43412;-71
2024/01/19 06:15:41;;;;;;;10.43;8.00;;;15.90;64.70;;;;;;5068336;28;45355;-71
2024/01/19 06:18:09;;;;;;;12.60;8.40;;;16.00;64.90;;;;;;5062921;28;43716;-70
2024/01/19 06:20:41;;;;;;;8.57;7.40;;;16.00;64.90;;;;;;5063343;28;43372;-71
2024/01/19 06:23:09;;;;;;;11.90;8.13;;;16.10;64.70;;;;;;5063123;28;43423;-71
2024/01/19 06:25:37;;;;;;;11.93;7.93;;;16.20;64.30;;;;;;5062902;28;43878;-71
2024/01/19 06:28:07;;;;;;;8.97;7.43;;;16.20;63.90;;;;;;5062136;28;43385;-70
2024/01/19 06:30:35;;;;;;;10.03;7.43;;;16.20;64.00;;;;;;5062483;28;43444;-71
2024/01/19 06:33:05;;;;;;;10.40;8.20;;;16.20;64.00;;;;;;5062242;28;43389;-71
2024/01/19 06:35:33;;;;;;;9.37;7.47;;;16.10;64.20;;;;;;5062459;28;43701;-70
2024/01/19 06:38:03;;;;;;;8.83;7.20;;;16.10;64.00;;;;;;5061675;28;43535;-71
2024/01/19 06:40:31;;;;;;;8.80;8.00;;;16.20;64.30;;;;;;5062248;28;43758;-71
2024/01/19 06:42:59;;;;;;;7.83;7.00;;;16.10;64.10;;;;;;5062020;28;43352;-70
2024/01/19 06:45:29;;;;;;;10.67;7.47;;;16.10;64.20;;;;;;5061083;28;45637;-71
2024/01/19 06:47:57;;;;;;;8.53;7.10;;;16.10;64.40;;;;;;5060921;28;43538;-71
2024/01/19 06:50:26;;;;;;;7.93;7.17;;;16.10;64.30;;;;;;5059467;28;43404;-70
2024/01/19 06:52:54;;;;;;;7.90;7.03;;;16.10;64.30;;;;;;5072790;28;43553;-70
2024/01/19 06:55:26;;;;;;;7.63;7.00;;;16.10;64.30;;;;;;5062633;28;43769;-70
2024/01/19 06:57:54;;;;;;;8.80;7.83;;;16.10;64.30;;;;;;5062538;28;43351;-70
2024/01/19 07:00:22;;;;;;;8.07;7.27;;;16.10;64.30;;;;;;5067631;28;43478;-71
2024/01/19 07:02:52;;;;;;;8.23;7.50;;;16.10;64.30;;;;;;5062898;28;43475;-70
2024/01/19 07:05:20;;;;;;;8.47;7.57;;;16.10;64.30;;;;;;5061948;28;43809;-71
2024/01/19 07:07:49;;;;;;;8.27;7.43;;;16.10;64.40;;;;;;5062397;28;43429;-70
2024/01/19 07:10:18;;;;;;;8.17;7.27;;;16.00;64.40;;;;;;5053876;28;43394;-71
2024/01/19 07:12:46;;;;;;;8.37;7.63;;;16.10;64.40;;;;;;5046002;28;43423;-71
2024/01/19 07:15:14;;;;;;;8.03;7.33;;;16.10;64.00;;;;;;5049198;28;43756;-72
2024/01/19 07:17:42;;;;;;;7.60;6.97;;;16.20;64.10;;;;;;5049050;28;43353;-71
2024/01/19 07:20:12;;;;;;;7.70;7.00;;;16.10;64.10;;;;;;5048765;28;43457;-71
2024/01/19 07:22:40;;;;;;;7.80;7.10;;;16.10;64.30;;;;;;5045359;28;43440;-71
2024/01/19 07:25:11;;;;;;;8.60;7.80;;;16.10;64.40;;;;;;5048161;28;43605;-71
2024/01/19 07:27:40;;;;;;;8.30;7.60;;;16.10;64.30;;;;;;5048865;28;43399;-71
2024/01/19 07:30:08;;;;;;;7.50;6.80;;;16.00;64.20;;;;;;5048891;28;43970;-72
2024/01/19 07:32:36;;;;;;;9.30;8.37;;;16.00;64.20;;;;;;5049580;28;43442;-71
2024/01/19 07:35:26;;;;;;;8.23;7.43;;;16.00;64.30;;;;;;5045868;28;43613;-72
2024/01/19 07:37:54;;;;;;;8.37;7.57;;;16.00;64.50;;;;;;5061876;28;45120;-71
2024/01/19 07:40:22;;;;;;;7.93;7.13;;;16.00;64.40;;;;;;5049099;28;43486;-72
2024/01/19 07:42:51;;;;;;;8.50;7.70;;;16.00;64.50;;;;;;5048860;28;43431;-72
2024/01/19 07:45:19;;;;;;;7.63;7.03;;;16.00;64.70;;;;;;5056646;28;45687;-71
2024/01/19 07:47:47;;;;;;;7.50;6.80;;;16.00;64.60;;;;;;5048148;28;43489;-71
2024/01/19 07:50:15;;;;;;;7.77;7.17;;;16.10;64.30;;;;;;5048271;28;43971;-71
2024/01/19 07:52:45;;;;;;;8.00;7.20;;;16.10;63.90;;;;;;5043663;28;43393;-71
2024/01/19 07:55:13;;;;;;;7.73;7.13;;;16.20;64.00;;;;;;5048880;28;43809;-71
2024/01/19 07:57:41;;;;;;;7.60;7.00;;;16.20;64.10;;;;;;5048304;28;43831;-71
2024/01/19 08:00:10;;;;;;;8.17;7.47;;;16.10;64.00;;;;;;5048170;28;43414;-71
2024/01/19 08:02:38;;;;;;;7.80;7.07;;;16.10;64.20;;;;;;5049034;28;44021;-70
2024/01/19 08:05:06;;;;;;;7.80;7.13;;;16.10;64.10;;;;;;5048234;28;44067;-71
2024/01/19 08:07:34;;;;;;;8.10;7.33;;;16.10;64.10;;;;;;5048684;28;43510;-71
2024/01/19 08:10:04;;;;;;;8.43;7.63;;;16.10;64.20;;;;;;5050443;28;43517;-71
2024/01/19 08:12:32;;;;;;;8.67;7.97;;;16.10;64.30;;;;;;5048312;28;43429;-70
2024/01/19 08:15:00;;;;;;;7.90;7.20;;;16.00;64.20;;;;;;5048275;28;43974;-71
2024/01/19 08:17:30;;;;;;;8.07;7.37;;;16.00;64.20;;;;;;5058217;28;45037;-71
2024/01/19 08:19:58;;;;;;;8.53;7.73;;;16.00;64.20;;;;;;5048129;28;43799;-71
2024/01/19 08:22:26;;;;;;;8.37;7.70;;;16.00;64.20;;;;;;5048043;28;43870;-71
2024/01/19 08:24:54;;;;;;;8.40;7.70;;;16.00;64.30;;;;;;5048241;28;44461;-71
2024/01/19 08:27:23;;;;;;;8.30;7.60;;;16.00;65.00;;;;;;5048422;28;43489;-71
2024/01/19 08:29:52;;;;;;;8.30;7.53;;;16.00;64.50;;;;;;5048044;28;43381;-71
2024/01/19 08:32:20;;;;;;;9.20;8.37;;;16.00;64.50;;;;;;5048832;28;43388;-71
2024/01/19 08:34:48;;;;;;;7.90;7.27;;;15.90;64.40;;;;;;5046905;28;46025;-71
2024/01/19 08:37:16;;;;;;;8.87;8.07;;;15.90;64.60;;;;;;5047967;28;43452;-71
2024/01/19 08:39:45;;;;;;;9.03;8.27;;;16.00;64.50;;;;;;5048236;28;43430;-71
2024/01/19 08:42:13;;;;;;;8.37;7.67;;;16.10;65.10;;;;;;5049188;28;43332;-71
2024/01/19 08:44:45;;;;;;;8.17;7.43;;;16.10;63.90;;;;;;5048079;28;43603;-70
2024/01/19 08:47:13;;;;;;;7.97;7.37;;;16.20;63.90;;;;;;5048121;28;43464;-71
2024/01/19 08:49:42;;;;;;;8.40;7.70;;;16.10;64.00;;;;;;5047781;28;43384;-70
2024/01/19 08:52:11;;;;;;;9.07;8.27;;;16.10;64.00;;;;;;5055133;28;43441;-71
2024/01/19 08:54:39;;;;;;;8.20;7.50;;;16.10;64.30;;;;;;5045835;28;43940;-71
2024/01/19 08:57:07;;;;;;;8.27;7.57;;;16.10;64.10;;;;;;5047903;28;43932;-71
2024/01/19 08:59:35;;;;;;;8.10;7.47;;;16.10;64.20;;;;;;5048022;28;43444;-71
2024/01/19 09:02:05;;;;;;;8.47;7.67;;;16.00;64.20;;;;;;5048897;28;43477;-71
2024/01/19 09:04:33;;;;;;;8.33;7.63;;;16.00;64.20;;;;;;5047860;28;43825;-71
2024/01/19 09:07:01;;;;;;;7.50;7.00;;;16.00;64.20;;;;;;5048354;28;43451;-72
2024/01/19 09:09:30;;;;;;;7.83;7.23;;;16.00;64.30;;;;;;5060369;28;43885;-72
2024/01/19 09:11:58;;;;;;;7.73;7.13;;;16.00;64.30;;;;;;5047621;28;43506;-72
2024/01/19 09:14:27;;;;;;;8.50;7.70;;;16.00;64.30;;;;;;5050890;28;43653;-72
2024/01/19 09:16:55;;;;;;;8.50;7.80;;;16.00;64.40;;;;;;5050808;28;43490;-72
2024/01/19 09:19:25;;;;;;;8.10;7.47;;;16.00;64.40;;;;;;5049764;28;44097;-71
2024/01/19 09:21:53;;;;;;;8.63;7.83;;;16.00;64.50;;;;;;5049850;28;43734;-72
2024/01/19 09:24:21;;;;;;;8.07;7.33;;;15.90;64.40;;;;;;5050848;28;43714;-72
2024/01/19 09:26:49;;;;;;;8.13;7.43;;;16.00;64.50;;;;;;5051034;28;44035;-71
2024/01/19 09:29:17;;;;;;;8.47;7.77;;;15.90;64.50;;;;;;5059614;28;44217;-71
2024/01/19 09:31:45;;;;;;;8.57;7.90;;;16.00;64.60;;;;;;5076345;28;43367;-71
2024/01/19 09:34:14;;;;;;;7.93;7.40;;;16.10;64.30;;;;;;5075510;28;43829;-71
2024/01/19 09:36:43;;;;;;;7.23;6.80;;;16.10;64.60;;;;;;5074508;28;44482;-71
2024/01/19 09:39:11;;;;;;;7.63;7.03;;;16.10;63.90;;;;;;5074978;28;43759;-71
2024/01/19 09:41:39;;;;;;;7.67;7.17;;;16.10;64.10;;;;;;5074861;28;43460;-71
2024/01/19 09:44:08;;;;;;;7.70;7.13;;;16.10;64.20;;;;;;5074331;28;45697;-70
2024/01/19 09:46:43;;;;;;;8.00;7.40;;;16.00;64.20;;;;;;5075802;28;43364;-70
2024/01/19 09:49:18;;;;;;;8.07;7.53;;;16.00;64.10;;;;;;5069272;28;43367;-70
2024/01/19 09:51:56;;;;;;;8.20;7.53;;;16.10;64.30;;;;;;5070369;28;43402;-70
2024/01/19 09:54:28;;;;;;;7.67;7.17;;;16.00;64.20;;;;;;5075586;28;43935;-70
2024/01/19 09:56:56;;;;;;;8.10;7.50;;;16.00;64.20;;;;;;5089306;27;44553;-70
2024/01/19 09:59:24;;;;;;;7.33;6.83;;;16.00;64.40;;;;;;5075357;28;43410;-70
2024/01/19 10:01:52;;;;;;;7.67;7.07;;;16.00;64.50;;;;;;5075828;28;43411;-70
2024/01/19 10:04:21;;;;;;;7.50;7.00;;;15.90;64.20;;;;;;5075256;28;43841;-70
2024/01/19 10:06:50;;;;;;;7.60;7.10;;;15.90;64.30;;;;;;5075576;28;43415;-70
2024/01/19 10:09:19;;;;;;;8.30;7.60;;;15.90;64.30;;;;;;5077236;28;43435;-70
2024/01/19 10:11:47;;;;;;;8.33;7.73;;;16.00;64.50;;;;;;5075376;28;43368;-70
2024/01/19 10:14:15;;;;;;;8.23;7.63;;;16.00;64.50;;;;;;5075293;28;43769;-70
2024/01/19 10:16:43;;;;;;;7.87;7.27;;;15.90;64.40;;;;;;5075200;28;43372;-70
2024/01/19 10:19:12;;;;;;;7.53;7.10;;;15.90;64.40;;;;;;5075006;28;43429;-70
2024/01/19 10:21:40;;;;;;;7.90;7.40;;;16.00;64.70;;;;;;5075405;28;43432;-70
2024/01/19 10:24:10;;;;;;;7.87;7.27;;;16.00;64.50;;;;;;5073712;28;45666;-70
2024/01/19 10:26:39;;;;;;;7.30;6.80;;;16.10;64.30;;;;;;5075136;28;43463;-70
2024/01/19 10:29:11;;;;;;;7.83;7.23;;;16.10;63.90;;;;;;5075222;28;43454;-70
2024/01/19 10:31:40;;;;;;;7.73;7.13;;;16.10;64.00;;;;;;5073353;28;43356;-70
2024/01/19 10:34:16;;;;;;;7.33;6.83;;;16.10;64.10;;;;;;5074861;28;43690;-70
2024/01/19 10:36:45;;;;;;;8.27;7.67;;;16.00;64.10;;;;;;5075178;28;43380;-70
2024/01/19 10:39:22;;;;;;;7.47;6.97;;;16.00;64.20;;;;;;5067281;28;43375;-78
2024/01/19 10:41:50;;;;;;;7.70;7.10;;;16.00;64.90;;;;;;5047950;28;43446;-79
2024/01/19 10:44:20;;;;;;;6.67;6.27;;;16.00;64.20;;;;;;5042368;28;43850;-72
2024/01/19 10:46:49;;;;;;;8.13;7.63;;;16.00;64.20;;;;;;5043647;28;43478;-72
2024/01/19 10:49:17;;;;;;;7.63;7.03;;;16.00;64.30;;;;;;5048269;28;43969;-73
2024/01/19 10:51:46;;;;;;;7.20;6.70;;;16.00;64.40;;;;;;5049449;28;43439;-73
2024/01/19 10:54:20;;;;;;;8.13;7.53;;;16.00;64.50;;;;;;5048422;28;43597;-73
2024/01/19 10:56:49;;;;;;;7.77;7.17;;;15.90;64.30;;;;;;5048750;28;43382;-72
2024/01/19 10:59:17;;;;;;;7.80;7.27;;;16.00;64.50;;;;;;5048046;28;43352;-73
2024/01/19 11:01:45;;;;;;;8.43;7.77;;;16.00;64.50;;;;;;5049285;28;43890;-72
2024/01/19 11:04:12;;;;;;;7.77;7.17;;;15.90;64.40;;;;;;5048608;28;43691;-72
2024/01/19 11:06:40;;;;;;;6.80;6.43;;;16.00;64.50;;;;;;5047950;28;43446;-72
2024/01/19 11:09:09;;;;;;;7.70;7.10;;;15.90;64.40;;;;;;5049793;28;43589;-73
2024/01/19 11:11:54;;;;;;;8.20;7.60;;;16.00;64.50;;;;;;5044266;28;43773;-72
2024/01/19 11:14:24;;;;;;;7.43;6.93;;;15.90;65.20;;;;;;5046955;28;43854;-73
2024/01/19 11:16:53;;;;;;;7.90;7.30;;;16.00;64.50;;;;;;5047566;28;43832;-73
2024/01/19 11:19:22;;;;;;;8.00;7.40;;;16.10;64.10;;;;;;5046823;28;43374;-73
2024/01/19 11:21:50;;;;;;;7.30;6.80;;;16.10;63.80;;;;;;5048630;28;43404;-73
2024/01/19 11:24:19;;;;;;;7.77;7.27;;;16.10;63.90;;;;;;5047378;28;44065;-73
2024/01/19 11:26:50;;;;;;;7.40;6.90;;;16.10;64.10;;;;;;5047113;28;43355;-72
2024/01/19 11:29:22;;;;;;;7.37;6.87;;;16.10;64.10;;;;;;5047281;28;43506;-72
2024/01/19 11:31:51;;;;;;;7.57;7.07;;;16.10;64.10;;;;;;5048793;28;43343;-72
2024/01/19 11:34:44;;;;;;;7.30;6.80;;;16.00;64.10;;;;;;5047742;28;43710;-72
2024/01/19 11:37:43;;;;;;;7.23;6.73;;;16.00;64.20;;;;;;5044003;28;43673;-71
2024/01/19 11:40:48;;;;;;;8.00;7.40;;;16.00;64.20;;;;;;5056875;28;43340;-73
2024/01/19 11:43:39;;;;;;;7.43;6.93;;;16.00;64.20;;;;;;5046025;28;43611;-73
2024/01/19 11:46:08;;;;;;;7.13;6.73;;;16.00;64.30;;;;;;5047063;28;44042;-72
2024/01/19 11:48:41;;;;;;;6.97;6.57;;;16.00;64.20;;;;;;5049009;28;43407;-71
2024/01/19 11:51:11;;;;;;;7.23;6.73;;;16.00;64.40;;;;;;5061933;28;43929;-71
2024/01/19 11:53:55;;;;;;;7.50;6.90;;;16.00;64.40;;;;;;5063459;28;43360;-71
2024/01/19 11:56:24;;;;;;;7.03;6.53;;;16.00;64.50;;;;;;5060641;28;43852;-71
2024/01/19 11:58:53;;;;;;;7.57;7.07;;;16.00;64.50;;;;;;5061725;28;43434;-71
2024/01/19 12:01:22;;;;;;;6.67;6.27;;;15.90;64.40;;;;;;5061339;28;43458;-71
2024/01/19 12:03:52;;;;;;;7.00;6.60;;;15.90;64.30;;;;;;5062334;28;43442;-71
2024/01/19 12:06:20;;;;;;;6.73;6.33;;;16.00;64.40;;;;;;5060708;28;43545;-71
2024/01/19 12:09:04;;;;;;;7.17;6.77;;;15.90;64.40;;;;;;5066115;28;44651;-71
2024/01/19 12:11:32;;;;;;;7.70;7.10;;;16.00;64.50;;;;;;5056562;28;43336;-71
2024/01/19 12:14:03;;;;;;;6.93;6.53;;;15.90;64.40;;;;;;5061224;28;43449;-71
2024/01/19 12:16:36;;;;;;;6.70;6.30;;;16.00;64.50;;;;;;5061590;28;43960;-70
2024/01/19 12:19:04;;;;;;;7.17;6.67;;;16.00;64.60;;;;;;5060110;28;44508;-71
2024/01/19 12:21:32;;;;;;;6.57;6.13;;;15.90;64.60;;;;;;5072591;28;44233;-71
2024/01/19 12:24:00;;;;;;;7.23;6.83;;;16.00;64.60;;;;;;5060625;28;43565;-71
2024/01/19 12:26:28;;;;;;;6.90;6.50;;;16.10;64.40;;;;;;5061229;28;43743;-71
2024/01/19 12:28:58;;;;;;;6.97;6.57;;;16.10;64.00;;;;;;5062959;28;43364;-70
2024/01/19 12:31:30;;;;;;;6.57;6.17;;;16.20;63.80;;;;;;5073248;28;43409;-71
2024/01/19 12:34:10;;;;;;;6.87;6.47;;;16.20;63.90;;;;;;5063104;28;43309;-71
2024/01/19 12:36:39;;;;;;;7.37;6.87;;;16.20;64.00;;;;;;5062660;28;43935;-71
2024/01/19 12:39:11;;;;;;;7.00;6.50;;;16.10;64.10;;;;;;5061880;28;43320;-71
2024/01/19 12:41:40;;;;;;;6.30;5.90;;;16.10;64.00;;;;;;5062044;28;43991;-71
2024/01/19 12:44:08;;;;;;;6.80;6.40;;;16.10;64.10;;;;;;5062584;28;43393;-71
2024/01/19 12:46:36;;;;;;;7.17;6.77;;;16.00;64.10;;;;;;5057215;28;45815;-71
2024/01/19 12:49:06;;;;;;;6.23;5.93;;;16.10;64.30;;;;;;5067101;28;44062;-71
2024/01/19 12:51:34;;;;;;;6.67;6.27;;;16.00;65.00;;;;;;5057118;28;43373;-71
2024/01/19 12:54:03;;;;;;;6.80;6.40;;;16.00;64.20;;;;;;5069838;28;43483;-70
2024/01/19 12:56:32;;;;;;;6.10;5.80;;;16.00;64.20;;;;;;5066156;28;43614;-71